sensor_id;sensor_type;location;lat;lon;timestamp;pressure;altitude;pressure_sealevel;temperature;humidity
42621;BME280;28252;53.336;-6.298;2022-07-23T00:00:07;101134.75;;;25.41;56.90
42621;BME280;28252;53.336;-6.298;2022-07-23T00:00:39;101142.91;;;25.41;57.08
42621;BME280;28252;53.336;-6.298;2022-07-23T00:01:09;101142.72;;;25.43;56.93
42621;BME280;28252;53.336;-6.298;2022-07-23T00:01:40;101139.16;;;25.42;56.82
42621;BME280;28252;53.336;-6.298;2022-07-23T00:02:11;101137.28;;;25.43;56.89
42621;BME280;28252;53.336;-6.298;2022-07-23T00:02:42;101130.97;;;25.42;57.02
42621;BME280;28252;53.336;-6.298;2022-07-23T00:03:13;101134.53;;;25.43;57.11
42621;BME280;28252;53.336;-6.298;2022-07-23T00:03:44;101127.38;;;25.42;57.06
42621;BME280;28252;53.336;-6.298;2022-07-23T00:04:15;101138.31;;;25.42;56.80
42621;BME280;28252;53.336;-6.298;2022-07-23T00:04:46;101127.38;;;25.42;56.90
42621;BME280;28252;53.336;-6.298;2022-07-23T00:05:17;101130.31;;;25.40;56.97
42621;BME280;28252;53.336;-6.298;2022-07-23T00:05:48;101131.19;;;25.41;57.17
42621;BME280;28252;53.336;-6.298;2022-07-23T00:06:19;101129.28;;;25.41;56.79
42621;BME280;28252;53.336;-6.298;2022-07-23T00:06:50;101127.38;;;25.42;56.87
42621;BME280;28252;53.336;-6.298;2022-07-23T00:07:20;101129.28;;;25.41;56.89
42621;BME280;28252;53.336;-6.298;2022-07-23T00:07:51;101127.59;;;25.40;57.17
42621;BME280;28252;53.336;-6.298;2022-07-23T00:08:22;101130.97;;;25.42;56.80
42621;BME280;28252;53.336;-6.298;2022-07-23T00:08:53;101132.00;;;25.41;56.94
42621;BME280;28252;53.336;-6.298;2022-07-23T00:09:24;101127.38;;;25.42;56.86
42621;BME280;28252;53.336;-6.298;2022-07-23T00:09:55;101136.44;;;25.42;56.84
42621;BME280;28252;53.336;-6.298;2022-07-23T00:10:26;101127.38;;;25.42;56.93
42621;BME280;28252;53.336;-6.298;2022-07-23T00:10:57;101127.38;;;25.42;56.79
42621;BME280;28252;53.336;-6.298;2022-07-23T00:11:28;101130.31;;;25.40;56.89
42621;BME280;28252;53.336;-6.298;2022-07-23T00:11:59;101127.38;;;25.42;56.82
42621;BME280;28252;53.336;-6.298;2022-07-23T00:12:30;101137.47;;;25.41;56.99
42621;BME280;28252;53.336;-6.298;2022-07-23T00:13:01;101133.72;;;25.42;57.11
42621;BME280;28252;53.336;-6.298;2022-07-23T00:13:32;101126.56;;;25.41;57.12
42621;BME280;28252;53.336;-6.298;2022-07-23T00:14:03;101132.00;;;25.41;56.79
42621;BME280;28252;53.336;-6.298;2022-07-23T00:14:33;101127.38;;;25.42;56.85
42621;BME280;28252;53.336;-6.298;2022-07-23T00:15:05;101139.16;;;25.42;56.85
42621;BME280;28252;53.336;-6.298;2022-07-23T00:15:36;101136.44;;;25.42;56.98
42621;BME280;28252;53.336;-6.298;2022-07-23T00:16:07;101133.72;;;25.42;56.82
42621;BME280;28252;53.336;-6.298;2022-07-23T00:16:38;101124.66;;;25.42;56.83
42621;BME280;28252;53.336;-6.298;2022-07-23T00:17:09;101129.28;;;25.41;56.81
42621;BME280;28252;53.336;-6.298;2022-07-23T00:17:40;101127.38;;;25.42;57.00
42621;BME280;28252;53.336;-6.298;2022-07-23T00:18:11;101126.56;;;25.41;56.86
42621;BME280;28252;53.336;-6.298;2022-07-23T00:18:42;101126.56;;;25.41;57.06
42621;BME280;28252;53.336;-6.298;2022-07-23T00:19:12;101129.09;;;25.43;57.11
42621;BME280;28252;53.336;-6.298;2022-07-23T00:19:43;101128.25;;;25.42;57.03
42621;BME280;28252;53.336;-6.298;2022-07-23T00:20:14;101129.28;;;25.41;57.04
42621;BME280;28252;53.336;-6.298;2022-07-23T00:20:45;101123.84;;;25.41;56.86
42621;BME280;28252;53.336;-6.298;2022-07-23T00:21:16;101129.94;;;25.43;56.93
42621;BME280;28252;53.336;-6.298;2022-07-23T00:21:47;101123.84;;;25.41;56.71
42621;BME280;28252;53.336;-6.298;2022-07-23T00:22:18;101130.13;;;25.42;56.88
42621;BME280;28252;53.336;-6.298;2022-07-23T00:22:50;101121.09;;;25.41;57.11
42621;BME280;28252;53.336;-6.298;2022-07-23T00:23:21;101122.81;;;25.42;57.02
42621;BME280;28252;53.336;-6.298;2022-07-23T00:23:52;101127.38;;;25.42;57.04
42621;BME280;28252;53.336;-6.298;2022-07-23T00:24:23;101120.06;;;25.42;56.82
42621;BME280;28252;53.336;-6.298;2022-07-23T00:24:54;101121.09;;;25.41;56.65
42621;BME280;28252;53.336;-6.298;2022-07-23T00:25:26;101119.22;;;25.42;56.95
42621;BME280;28252;53.336;-6.298;2022-07-23T00:25:57;101122.81;;;25.42;56.98
42621;BME280;28252;53.336;-6.298;2022-07-23T00:26:28;101118.38;;;25.41;57.04
42621;BME280;28252;53.336;-6.298;2022-07-23T00:26:59;101121.09;;;25.41;57.07
42621;BME280;28252;53.336;-6.298;2022-07-23T00:27:29;101120.06;;;25.42;56.84
42621;BME280;28252;53.336;-6.298;2022-07-23T00:28:01;101121.94;;;25.42;56.93
42621;BME280;28252;53.336;-6.298;2022-07-23T00:28:32;101121.94;;;25.42;57.04
42621;BME280;28252;53.336;-6.298;2022-07-23T00:29:03;101121.09;;;25.41;56.82
42621;BME280;28252;53.336;-6.298;2022-07-23T00:29:33;101113.75;;;25.42;56.97
42621;BME280;28252;53.336;-6.298;2022-07-23T00:30:04;101117.34;;;25.42;56.75
42621;BME280;28252;53.336;-6.298;2022-07-23T00:30:35;101121.09;;;25.41;56.70
42621;BME280;28252;53.336;-6.298;2022-07-23T00:31:06;101113.75;;;25.42;57.02
42621;BME280;28252;53.336;-6.298;2022-07-23T00:31:37;101115.66;;;25.41;56.73
42621;BME280;28252;53.336;-6.298;2022-07-23T00:32:08;101114.63;;;25.42;56.66
42621;BME280;28252;53.336;-6.298;2022-07-23T00:32:46;101117.34;;;25.42;56.80
42621;BME280;28252;53.336;-6.298;2022-07-23T00:33:17;101113.75;;;25.42;56.63
42621;BME280;28252;53.336;-6.298;2022-07-23T00:33:47;101111.91;;;25.42;56.58
42621;BME280;28252;53.336;-6.298;2022-07-23T00:34:18;101117.16;;;25.44;56.60
42621;BME280;28252;53.336;-6.298;2022-07-23T00:34:49;101115.66;;;25.41;56.62
42621;BME280;28252;53.336;-6.298;2022-07-23T00:35:20;101112.72;;;25.43;56.81
42621;BME280;28252;53.336;-6.298;2022-07-23T00:35:51;101111.03;;;25.42;56.71
42621;BME280;28252;53.336;-6.298;2022-07-23T00:36:23;101117.34;;;25.42;56.95
42621;BME280;28252;53.336;-6.298;2022-07-23T00:36:54;101115.66;;;25.41;56.84
42621;BME280;28252;53.336;-6.298;2022-07-23T00:37:25;101111.91;;;25.42;56.95
42621;BME280;28252;53.336;-6.298;2022-07-23T00:37:56;101106.44;;;25.42;56.77
42621;BME280;28252;53.336;-6.298;2022-07-23T00:38:27;101104.75;;;25.41;56.54
42621;BME280;28252;53.336;-6.298;2022-07-23T00:38:58;101109.16;;;25.42;56.94
42621;BME280;28252;53.336;-6.298;2022-07-23T00:39:29;101111.03;;;25.42;56.86
42621;BME280;28252;53.336;-6.298;2022-07-23T00:39:59;101104.75;;;25.41;56.97
42621;BME280;28252;53.336;-6.298;2022-07-23T00:40:31;101106.44;;;25.42;56.66
42621;BME280;28252;53.336;-6.298;2022-07-23T00:41:01;101107.47;;;25.41;56.78
42621;BME280;28252;53.336;-6.298;2022-07-23T00:41:32;101103.03;;;25.40;56.81
42621;BME280;28252;53.336;-6.298;2022-07-23T00:42:03;101099.28;;;25.41;56.73
42621;BME280;28252;53.336;-6.298;2022-07-23T00:42:35;101105.56;;;25.42;56.85
42621;BME280;28252;53.336;-6.298;2022-07-23T00:43:06;101108.13;;;25.43;56.85
42621;BME280;28252;53.336;-6.298;2022-07-23T00:43:36;101104.75;;;25.41;56.83
42621;BME280;28252;53.336;-6.298;2022-07-23T00:44:14;101112.72;;;25.43;56.84
42621;BME280;28252;53.336;-6.298;2022-07-23T00:44:45;101106.44;;;25.42;56.64
42621;BME280;28252;53.336;-6.298;2022-07-23T00:45:17;101114.63;;;25.42;56.55
42621;BME280;28252;53.336;-6.298;2022-07-23T00:45:48;101105.38;;;25.43;56.82
42621;BME280;28252;53.336;-6.298;2022-07-23T00:46:20;101105.56;;;25.42;56.48
42621;BME280;28252;53.336;-6.298;2022-07-23T00:46:52;101105.38;;;25.43;56.74
42621;BME280;28252;53.336;-6.298;2022-07-23T00:47:24;101102.84;;;25.42;56.86
42621;BME280;28252;53.336;-6.298;2022-07-23T00:47:55;101106.44;;;25.42;56.87
42621;BME280;28252;53.336;-6.298;2022-07-23T00:48:26;101107.47;;;25.41;56.62
42621;BME280;28252;53.336;-6.298;2022-07-23T00:48:57;101102.00;;;25.41;56.84
42621;BME280;28252;53.336;-6.298;2022-07-23T00:49:29;101109.16;;;25.42;56.46
42621;BME280;28252;53.336;-6.298;2022-07-23T00:50:00;101101.00;;;25.42;56.80
42621;BME280;28252;53.336;-6.298;2022-07-23T00:50:31;101097.41;;;25.42;56.82
42621;BME280;28252;53.336;-6.298;2022-07-23T00:51:02;101098.47;;;25.41;56.65
42621;BME280;28252;53.336;-6.298;2022-07-23T00:51:33;101098.25;;;25.42;56.65
42621;BME280;28252;53.336;-6.298;2022-07-23T00:52:04;101101.00;;;25.42;56.62
42621;BME280;28252;53.336;-6.298;2022-07-23T00:52:37;101093.84;;;25.41;56.55
42621;BME280;28252;53.336;-6.298;2022-07-23T00:53:08;101096.56;;;25.41;56.52
42621;BME280;28252;53.336;-6.298;2022-07-23T00:53:40;101095.72;;;25.41;56.46
42621;BME280;28252;53.336;-6.298;2022-07-23T00:54:11;101095.53;;;25.42;56.71
42621;BME280;28252;53.336;-6.298;2022-07-23T00:54:42;101093.84;;;25.41;56.74
42621;BME280;28252;53.336;-6.298;2022-07-23T00:55:13;101093.84;;;25.41;56.49
42621;BME280;28252;53.336;-6.298;2022-07-23T00:55:44;101093.84;;;25.41;56.63
42621;BME280;28252;53.336;-6.298;2022-07-23T00:56:15;101087.53;;;25.41;56.64
42621;BME280;28252;53.336;-6.298;2022-07-23T00:56:46;101097.41;;;25.42;56.42
42621;BME280;28252;53.336;-6.298;2022-07-23T00:57:18;101090.09;;;25.42;56.48
42621;BME280;28252;53.336;-6.298;2022-07-23T00:57:49;101093.84;;;25.41;56.40
42621;BME280;28252;53.336;-6.298;2022-07-23T00:58:20;101091.09;;;25.41;56.42
42621;BME280;28252;53.336;-6.298;2022-07-23T00:58:51;101089.22;;;25.42;56.54
42621;BME280;28252;53.336;-6.298;2022-07-23T00:59:22;101083.94;;;25.40;56.84
42621;BME280;28252;53.336;-6.298;2022-07-23T00:59:53;101083.75;;;25.42;56.75
42621;BME280;28252;53.336;-6.298;2022-07-23T01:00:24;101082.94;;;25.41;56.63
42621;BME280;28252;53.336;-6.298;2022-07-23T01:00:55;101086.50;;;25.42;56.62
42621;BME280;28252;53.336;-6.298;2022-07-23T01:01:26;101082.94;;;25.41;56.47
42621;BME280;28252;53.336;-6.298;2022-07-23T01:01:57;101086.69;;;25.40;56.73
42621;BME280;28252;53.336;-6.298;2022-07-23T01:02:28;101086.69;;;25.40;56.46
42621;BME280;28252;53.336;-6.298;2022-07-23T01:02:59;101088.38;;;25.41;56.49
42621;BME280;28252;53.336;-6.298;2022-07-23T01:03:30;101090.09;;;25.42;56.53
42621;BME280;28252;53.336;-6.298;2022-07-23T01:04:01;101081.91;;;25.42;56.81
42621;BME280;28252;53.336;-6.298;2022-07-23T01:04:32;101081.91;;;25.42;56.77
42621;BME280;28252;53.336;-6.298;2022-07-23T01:05:03;101081.22;;;25.40;56.63
42621;BME280;28252;53.336;-6.298;2022-07-23T01:05:34;101082.94;;;25.41;56.48
42621;BME280;28252;53.336;-6.298;2022-07-23T01:06:05;101083.75;;;25.42;56.85
42621;BME280;28252;53.336;-6.298;2022-07-23T01:06:37;101083.75;;;25.42;56.79
42621;BME280;28252;53.336;-6.298;2022-07-23T01:07:08;101086.69;;;25.40;56.64
42621;BME280;28252;53.336;-6.298;2022-07-23T01:07:39;101082.94;;;25.41;56.42
42621;BME280;28252;53.336;-6.298;2022-07-23T01:08:10;101082.94;;;25.41;56.49
42621;BME280;28252;53.336;-6.298;2022-07-23T01:08:41;101088.38;;;25.41;56.51
42621;BME280;28252;53.336;-6.298;2022-07-23T01:09:13;101080.41;;;25.40;56.49
42621;BME280;28252;53.336;-6.298;2022-07-23T01:09:44;101079.38;;;25.41;56.69
42621;BME280;28252;53.336;-6.298;2022-07-23T01:10:15;101082.94;;;25.41;56.58
42621;BME280;28252;53.336;-6.298;2022-07-23T01:11:01;101079.16;;;25.42;56.45
42621;BME280;28252;53.336;-6.298;2022-07-23T01:11:35;101083.75;;;25.42;56.44
42621;BME280;28252;53.336;-6.298;2022-07-23T01:12:06;101086.50;;;25.42;56.55
42621;BME280;28252;53.336;-6.298;2022-07-23T01:12:38;101082.09;;;25.41;56.75
42621;BME280;28252;53.336;-6.298;2022-07-23T01:13:09;101077.47;;;25.41;56.73
42621;BME280;28252;53.336;-6.298;2022-07-23T01:13:41;101082.94;;;25.41;56.41
42621;BME280;28252;53.336;-6.298;2022-07-23T01:14:14;101080.19;;;25.41;56.73
42621;BME280;28252;53.336;-6.298;2022-07-23T01:14:45;101073.91;;;25.41;56.57
42621;BME280;28252;53.336;-6.298;2022-07-23T01:15:16;101064.88;;;25.40;56.46
42621;BME280;28252;53.336;-6.298;2022-07-23T01:15:47;101073.72;;;25.42;56.65
42621;BME280;28252;53.336;-6.298;2022-07-23T01:16:18;101075.78;;;25.40;56.73
42621;BME280;28252;53.336;-6.298;2022-07-23T01:16:49;101070.13;;;25.42;56.71
42621;BME280;28252;53.336;-6.298;2022-07-23T01:17:20;101071.19;;;25.41;56.74
42621;BME280;28252;53.336;-6.298;2022-07-23T01:17:51;101073.72;;;25.42;56.49
42621;BME280;28252;53.336;-6.298;2022-07-23T01:18:22;101072.03;;;25.41;56.62
42621;BME280;28252;53.336;-6.298;2022-07-23T01:18:52;101074.75;;;25.41;56.74
42621;BME280;28252;53.336;-6.298;2022-07-23T01:19:23;101077.47;;;25.41;56.55
42621;BME280;28252;53.336;-6.298;2022-07-23T01:19:54;101077.47;;;25.41;56.74
42621;BME280;28252;53.336;-6.298;2022-07-23T01:20:25;101070.31;;;25.40;56.43
42621;BME280;28252;53.336;-6.298;2022-07-23T01:20:56;101071.19;;;25.41;56.56
42621;BME280;28252;53.336;-6.298;2022-07-23T01:21:27;101072.03;;;25.41;56.52
42621;BME280;28252;53.336;-6.298;2022-07-23T01:21:58;101074.75;;;25.41;56.55
42621;BME280;28252;53.336;-6.298;2022-07-23T01:22:32;101068.47;;;25.41;56.67
42621;BME280;28252;53.336;-6.298;2022-07-23T01:23:03;101072.03;;;25.41;56.86
42621;BME280;28252;53.336;-6.298;2022-07-23T01:23:34;101072.03;;;25.41;56.82
42621;BME280;28252;53.336;-6.298;2022-07-23T01:24:05;101066.56;;;25.41;56.58
42621;BME280;28252;53.336;-6.298;2022-07-23T01:24:36;101070.31;;;25.40;56.80
42621;BME280;28252;53.336;-6.298;2022-07-23T01:25:07;101059.41;;;25.40;56.67
42621;BME280;28252;53.336;-6.298;2022-07-23T01:25:46;101066.56;;;25.41;56.46
42621;BME280;28252;53.336;-6.298;2022-07-23T01:26:17;101070.13;;;25.42;56.88
42621;BME280;28252;53.336;-6.298;2022-07-23T01:26:48;101067.41;;;25.42;56.77
42621;BME280;28252;53.336;-6.298;2022-07-23T01:27:19;101064.69;;;25.42;56.74
42621;BME280;28252;53.336;-6.298;2022-07-23T01:27:53;101066.56;;;25.41;56.79
42621;BME280;28252;53.336;-6.298;2022-07-23T01:28:24;101066.56;;;25.41;56.79
42621;BME280;28252;53.336;-6.298;2022-07-23T01:28:55;101058.38;;;25.41;56.52
42621;BME280;28252;53.336;-6.298;2022-07-23T01:29:26;101061.13;;;25.41;56.62
42621;BME280;28252;53.336;-6.298;2022-07-23T01:29:57;101059.41;;;25.40;56.82
42621;BME280;28252;53.336;-6.298;2022-07-23T01:30:30;101062.13;;;25.40;56.57
42621;BME280;28252;53.336;-6.298;2022-07-23T01:31:01;101059.41;;;25.40;56.86
42621;BME280;28252;53.336;-6.298;2022-07-23T01:31:32;101059.41;;;25.40;56.89
42621;BME280;28252;53.336;-6.298;2022-07-23T01:32:03;101061.13;;;25.41;56.92
42621;BME280;28252;53.336;-6.298;2022-07-23T01:32:34;101052.94;;;25.41;56.71
42621;BME280;28252;53.336;-6.298;2022-07-23T01:33:05;101048.50;;;25.40;57.05
42621;BME280;28252;53.336;-6.298;2022-07-23T01:33:36;101047.47;;;25.41;56.74
42621;BME280;28252;53.336;-6.298;2022-07-23T01:34:07;101050.22;;;25.41;56.67
42621;BME280;28252;53.336;-6.298;2022-07-23T01:34:38;101040.31;;;25.40;56.65
42621;BME280;28252;53.336;-6.298;2022-07-23T01:35:10;101056.69;;;25.40;56.97
42621;BME280;28252;53.336;-6.298;2022-07-23T01:35:41;101041.38;;;25.39;56.90
42621;BME280;28252;53.336;-6.298;2022-07-23T01:36:12;101049.38;;;25.41;56.65
42621;BME280;28252;53.336;-6.298;2022-07-23T01:36:43;101049.38;;;25.41;56.65
42621;BME280;28252;53.336;-6.298;2022-07-23T01:37:14;101056.69;;;25.40;56.98
42621;BME280;28252;53.336;-6.298;2022-07-23T01:37:45;101048.50;;;25.40;56.87
42621;BME280;28252;53.336;-6.298;2022-07-23T01:38:16;101049.38;;;25.41;57.04
42621;BME280;28252;53.336;-6.298;2022-07-23T01:38:47;101048.50;;;25.40;57.04
42621;BME280;28252;53.336;-6.298;2022-07-23T01:39:18;101049.38;;;25.41;57.05
42621;BME280;28252;53.336;-6.298;2022-07-23T01:39:49;101050.41;;;25.40;56.92
42621;BME280;28252;53.336;-6.298;2022-07-23T01:40:20;101044.75;;;25.41;56.70
42621;BME280;28252;53.336;-6.298;2022-07-23T01:40:51;101048.50;;;25.40;57.12
42621;BME280;28252;53.336;-6.298;2022-07-23T01:41:22;101043.91;;;25.41;56.86
42621;BME280;28252;53.336;-6.298;2022-07-23T01:41:53;101049.38;;;25.41;57.15
42621;BME280;28252;53.336;-6.298;2022-07-23T01:42:24;101042.22;;;25.40;56.75
42621;BME280;28252;53.336;-6.298;2022-07-23T01:42:55;101043.06;;;25.40;57.03
42621;BME280;28252;53.336;-6.298;2022-07-23T01:43:26;101048.50;;;25.40;56.89
42621;BME280;28252;53.336;-6.298;2022-07-23T01:43:57;101038.47;;;25.41;57.05
42621;BME280;28252;53.336;-6.298;2022-07-23T01:44:27;101044.09;;;25.39;57.14
42621;BME280;28252;53.336;-6.298;2022-07-23T01:44:58;101042.22;;;25.40;56.88
42621;BME280;28252;53.336;-6.298;2022-07-23T01:45:29;101048.50;;;25.40;57.03
42621;BME280;28252;53.336;-6.298;2022-07-23T01:46:00;101044.94;;;25.40;57.11
42621;BME280;28252;53.336;-6.298;2022-07-23T01:46:31;101042.22;;;25.40;56.79
42621;BME280;28252;53.336;-6.298;2022-07-23T01:47:02;101043.06;;;25.40;57.25
42621;BME280;28252;53.336;-6.298;2022-07-23T01:47:33;101043.06;;;25.40;56.83
42621;BME280;28252;53.336;-6.298;2022-07-23T01:48:04;101039.50;;;25.40;57.12
42621;BME280;28252;53.336;-6.298;2022-07-23T01:48:35;101043.91;;;25.41;56.92
42621;BME280;28252;53.336;-6.298;2022-07-23T01:49:06;101047.47;;;25.41;57.11
42621;BME280;28252;53.336;-6.298;2022-07-23T01:49:37;101037.59;;;25.40;57.06
42621;BME280;28252;53.336;-6.298;2022-07-23T01:50:08;101039.28;;;25.41;56.87
42621;BME280;28252;53.336;-6.298;2022-07-23T01:50:39;101034.88;;;25.40;57.14
42621;BME280;28252;53.336;-6.298;2022-07-23T01:51:10;101034.88;;;25.40;57.15
42621;BME280;28252;53.336;-6.298;2022-07-23T01:51:41;101037.59;;;25.40;57.26
42621;BME280;28252;53.336;-6.298;2022-07-23T01:52:30;101037.59;;;25.40;56.90
42621;BME280;28252;53.336;-6.298;2022-07-23T01:53:00;101032.16;;;25.40;56.89
42621;BME280;28252;53.336;-6.298;2022-07-23T01:53:31;101027.75;;;25.39;57.08
42621;BME280;28252;53.336;-6.298;2022-07-23T01:54:02;101025.84;;;25.40;57.29
42621;BME280;28252;53.336;-6.298;2022-07-23T01:54:33;101032.16;;;25.40;57.33
42621;BME280;28252;53.336;-6.298;2022-07-23T01:55:04;101027.75;;;25.39;57.25
42621;BME280;28252;53.336;-6.298;2022-07-23T01:55:36;101030.47;;;25.39;57.29
42621;BME280;28252;53.336;-6.298;2022-07-23T01:56:07;101026.69;;;25.40;57.04
42621;BME280;28252;53.336;-6.298;2022-07-23T01:56:38;101027.56;;;25.41;57.12
42621;BME280;28252;53.336;-6.298;2022-07-23T01:57:09;101034.88;;;25.40;57.12
42621;BME280;28252;53.336;-6.298;2022-07-23T01:57:40;101023.13;;;25.40;57.00
42621;BME280;28252;53.336;-6.298;2022-07-23T01:58:11;101030.47;;;25.39;57.24
42621;BME280;28252;53.336;-6.298;2022-07-23T01:58:41;101029.41;;;25.40;56.95
42621;BME280;28252;53.336;-6.298;2022-07-23T01:59:12;101028.59;;;25.40;57.07
42621;BME280;28252;53.336;-6.298;2022-07-23T01:59:43;101031.31;;;25.40;57.37
42621;BME280;28252;53.336;-6.298;2022-07-23T02:00:14;101026.69;;;25.40;57.41
42621;BME280;28252;53.336;-6.298;2022-07-23T02:00:45;101027.56;;;25.41;57.41
42621;BME280;28252;53.336;-6.298;2022-07-23T02:01:16;101021.25;;;25.40;57.07
42621;BME280;28252;53.336;-6.298;2022-07-23T02:01:47;101028.38;;;25.41;57.06
42621;BME280;28252;53.336;-6.298;2022-07-23T02:02:18;101030.28;;;25.41;57.36
42621;BME280;28252;53.336;-6.298;2022-07-23T02:02:49;101022.28;;;25.39;57.21
42621;BME280;28252;53.336;-6.298;2022-07-23T02:03:20;101025.84;;;25.40;57.38
42621;BME280;28252;53.336;-6.298;2022-07-23T02:03:51;101024.84;;;25.41;57.21
42621;BME280;28252;53.336;-6.298;2022-07-23T02:04:22;101022.94;;;25.41;57.35
42621;BME280;28252;53.336;-6.298;2022-07-23T02:04:53;101021.25;;;25.40;57.36
42621;BME280;28252;53.336;-6.298;2022-07-23T02:05:27;101021.25;;;25.40;57.46
42621;BME280;28252;53.336;-6.298;2022-07-23T02:06:02;101014.13;;;25.39;57.53
42621;BME280;28252;53.336;-6.298;2022-07-23T02:06:33;101019.56;;;25.39;57.46
42621;BME280;28252;53.336;-6.298;2022-07-23T02:07:04;101019.56;;;25.39;57.31
42621;BME280;28252;53.336;-6.298;2022-07-23T02:07:35;101020.59;;;25.38;57.72
42621;BME280;28252;53.336;-6.298;2022-07-23T02:08:06;101013.25;;;25.39;57.58
42621;BME280;28252;53.336;-6.298;2022-07-23T02:08:37;101023.13;;;25.40;57.45
42621;BME280;28252;53.336;-6.298;2022-07-23T02:09:08;101014.94;;;25.40;57.60
42621;BME280;28252;53.336;-6.298;2022-07-23T02:09:39;101019.56;;;25.39;57.66
42621;BME280;28252;53.336;-6.298;2022-07-23T02:10:10;101024.84;;;25.41;57.29
42621;BME280;28252;53.336;-6.298;2022-07-23T02:10:41;101022.28;;;25.39;57.77
42621;BME280;28252;53.336;-6.298;2022-07-23T02:11:12;101015.78;;;25.40;57.41
42621;BME280;28252;53.336;-6.298;2022-07-23T02:11:43;101018.50;;;25.40;57.55
42621;BME280;28252;53.336;-6.298;2022-07-23T02:12:14;101014.13;;;25.39;57.67
42621;BME280;28252;53.336;-6.298;2022-07-23T02:12:45;101009.50;;;25.40;57.71
42621;BME280;28252;53.336;-6.298;2022-07-23T02:13:16;101014.13;;;25.39;57.69
42621;BME280;28252;53.336;-6.298;2022-07-23T02:13:46;101015.78;;;25.40;57.74
42621;BME280;28252;53.336;-6.298;2022-07-23T02:14:17;101011.38;;;25.39;57.78
42621;BME280;28252;53.336;-6.298;2022-07-23T02:14:48;101016.66;;;25.41;57.57
42621;BME280;28252;53.336;-6.298;2022-07-23T02:15:19;101014.94;;;25.40;57.65
42621;BME280;28252;53.336;-6.298;2022-07-23T02:15:50;101008.66;;;25.39;57.58
42621;BME280;28252;53.336;-6.298;2022-07-23T02:16:21;101010.34;;;25.40;57.86
42621;BME280;28252;53.336;-6.298;2022-07-23T02:16:52;101010.34;;;25.40;57.71
42621;BME280;28252;53.336;-6.298;2022-07-23T02:17:23;101011.38;;;25.39;57.56
42621;BME280;28252;53.336;-6.298;2022-07-23T02:17:54;101013.06;;;25.40;57.85
42621;BME280;28252;53.336;-6.298;2022-07-23T02:18:26;101008.66;;;25.39;57.70
42621;BME280;28252;53.336;-6.298;2022-07-23T02:18:57;101012.22;;;25.40;57.59
42621;BME280;28252;53.336;-6.298;2022-07-23T02:19:28;101012.22;;;25.40;57.82
42621;BME280;28252;53.336;-6.298;2022-07-23T02:19:59;101010.53;;;25.39;58.08
42621;BME280;28252;53.336;-6.298;2022-07-23T02:20:30;101002.34;;;25.39;58.06
42621;BME280;28252;53.336;-6.298;2022-07-23T02:21:01;101009.50;;;25.40;57.85
42621;BME280;28252;53.336;-6.298;2022-07-23T02:21:32;101003.22;;;25.39;57.70
42621;BME280;28252;53.336;-6.298;2022-07-23T02:22:03;101008.66;;;25.39;57.99
42621;BME280;28252;53.336;-6.298;2022-07-23T02:22:34;101008.66;;;25.39;57.82
42621;BME280;28252;53.336;-6.298;2022-07-23T02:23:05;101002.16;;;25.40;57.86
42621;BME280;28252;53.336;-6.298;2022-07-23T02:23:37;101008.66;;;25.39;58.10
42621;BME280;28252;53.336;-6.298;2022-07-23T02:24:09;101002.16;;;25.40;58.13
42621;BME280;28252;53.336;-6.298;2022-07-23T02:24:40;101002.16;;;25.40;57.79
42621;BME280;28252;53.336;-6.298;2022-07-23T02:25:11;100997.75;;;25.39;58.15
42621;BME280;28252;53.336;-6.298;2022-07-23T02:25:41;101002.34;;;25.39;58.14
42621;BME280;28252;53.336;-6.298;2022-07-23T02:26:12;100997.75;;;25.39;58.13
42621;BME280;28252;53.336;-6.298;2022-07-23T02:26:43;100997.75;;;25.39;58.17
42621;BME280;28252;53.336;-6.298;2022-07-23T02:27:14;100993.13;;;25.40;57.89
42621;BME280;28252;53.336;-6.298;2022-07-23T02:27:45;100991.44;;;25.39;58.31
42621;BME280;28252;53.336;-6.298;2022-07-23T02:28:16;100993.97;;;25.40;57.94
42621;BME280;28252;53.336;-6.298;2022-07-23T02:28:47;100996.91;;;25.39;58.06
42621;BME280;28252;53.336;-6.298;2022-07-23T02:29:18;100993.13;;;25.40;58.37
42621;BME280;28252;53.336;-6.298;2022-07-23T02:29:49;100995.03;;;25.39;58.18
42621;BME280;28252;53.336;-6.298;2022-07-23T02:30:20;100993.97;;;25.40;58.06
42621;BME280;28252;53.336;-6.298;2022-07-23T02:30:50;100997.75;;;25.39;58.22
42621;BME280;28252;53.336;-6.298;2022-07-23T02:31:21;100992.31;;;25.39;58.46
42621;BME280;28252;53.336;-6.298;2022-07-23T02:31:52;100990.59;;;25.38;58.18
42621;BME280;28252;53.336;-6.298;2022-07-23T02:32:23;100993.13;;;25.40;58.17
42621;BME280;28252;53.336;-6.298;2022-07-23T02:32:55;100987.88;;;25.38;58.35
42621;BME280;28252;53.336;-6.298;2022-07-23T02:33:25;100995.03;;;25.39;58.31
42621;BME280;28252;53.336;-6.298;2022-07-23T02:33:56;100992.31;;;25.39;58.33
42621;BME280;28252;53.336;-6.298;2022-07-23T02:34:27;100988.72;;;25.39;58.65
42621;BME280;28252;53.336;-6.298;2022-07-23T02:34:58;100996.06;;;25.38;58.70
42621;BME280;28252;53.336;-6.298;2022-07-23T02:35:29;100988.94;;;25.37;58.46
42621;BME280;28252;53.336;-6.298;2022-07-23T02:36:00;100997.75;;;25.39;58.45
42621;BME280;28252;53.336;-6.298;2022-07-23T02:36:31;100989.56;;;25.39;58.61
42621;BME280;28252;53.336;-6.298;2022-07-23T02:37:02;100985.16;;;25.38;58.70
42621;BME280;28252;53.336;-6.298;2022-07-23T02:37:33;100988.72;;;25.39;58.86
42621;BME280;28252;53.336;-6.298;2022-07-23T02:38:04;100990.59;;;25.38;58.66
42621;BME280;28252;53.336;-6.298;2022-07-23T02:38:34;100991.44;;;25.39;58.65
42621;BME280;28252;53.336;-6.298;2022-07-23T02:39:05;100983.25;;;25.39;59.00
42621;BME280;28252;53.336;-6.298;2022-07-23T02:39:36;100997.75;;;25.39;59.00
42621;BME280;28252;53.336;-6.298;2022-07-23T02:40:07;100995.03;;;25.39;59.04
42621;BME280;28252;53.336;-6.298;2022-07-23T02:40:38;100992.31;;;25.39;58.85
42621;BME280;28252;53.336;-6.298;2022-07-23T02:41:09;100991.44;;;25.39;58.83